Terminal Aerodrome Forecast
Issued by NWS

Home | Current Version | Previous Version | Text Only | Print | Product List | Glossary On
Versions: 1 2 3 4 5 6 7 8 9 10 11 12 13 14 15 16 17 18
000
FTUS46 KSEW 252300
TAFPAE
TAF
KPAE 252327Z 2600/2624 20004KT P6SM SCT010 BKN030 OVC060
     FM260400 12004KT P6SM SCT010 BKN030
     FM261200 10004KT P6SM BKN010 OVC020
     FM262100 14004KT P6SM BKN020 OVC035=

USA.gov is the U.S. government's official web portal to all federal, state and local government web resources and services.